createdAt,value
2023-05-18T00:00:23.473Z,0.59
2023-05-18T00:01:23.440Z,0.59
2023-05-18T00:02:23.546Z,0.59
2023-05-18T00:03:23.537Z,0.60
2023-05-18T00:04:23.410Z,0.59
2023-05-18T00:05:23.446Z,0.59
2023-05-18T00:06:23.407Z,0.60
2023-05-18T00:07:23.397Z,0.58
2023-05-18T00:08:23.413Z,0.59
2023-05-18T00:09:23.410Z,0.58
2023-05-18T00:10:23.409Z,0.60
2023-05-18T00:11:23.375Z,0.59
2023-05-18T00:12:23.337Z,0.59
2023-05-18T00:13:23.368Z,0.59
2023-05-18T00:14:23.329Z,0.59
2023-05-18T00:15:23.340Z,0.59
2023-05-18T00:16:23.407Z,0.59
2023-05-18T00:17:23.377Z,0.60
2023-05-18T00:18:23.361Z,0.59
2023-05-18T00:19:23.358Z,0.59
2023-05-18T00:20:23.339Z,0.58
2023-05-18T00:21:23.349Z,0.60
2023-05-18T00:22:23.313Z,0.58
2023-05-18T00:23:23.314Z,0.59
2023-05-18T00:24:23.318Z,0.60
2023-05-18T00:25:23.301Z,0.59
2023-05-18T00:26:23.292Z,0.58
2023-05-18T00:27:23.288Z,0.59
2023-05-18T00:28:23.248Z,0.59
2023-05-18T00:29:23.312Z,0.59
2023-05-18T00:30:23.264Z,0.60
2023-05-18T00:31:23.320Z,0.60
2023-05-18T00:32:23.284Z,0.60
2023-05-18T00:33:23.245Z,0.58
2023-05-18T00:34:23.237Z,0.59
2023-05-18T00:35:23.236Z,0.59
2023-05-18T00:36:23.263Z,0.59
2023-05-18T00:37:23.248Z,0.59
2023-05-18T00:38:23.214Z,0.60
2023-05-18T00:39:23.223Z,0.60
2023-05-18T00:40:23.213Z,0.58
2023-05-18T00:41:23.195Z,0.60
2023-05-18T00:42:23.181Z,0.61
2023-05-18T00:43:23.151Z,0.60
2023-05-18T00:44:23.205Z,0.58
2023-05-18T00:45:23.197Z,0.59
2023-05-18T00:46:23.286Z,0.61
2023-05-18T00:47:23.144Z,0.60
2023-05-18T00:48:23.191Z,0.59
2023-05-18T00:49:23.133Z,0.60
2023-05-18T00:50:23.142Z,0.60
2023-05-18T00:51:23.147Z,0.60
2023-05-18T00:52:23.153Z,0.59
2023-05-18T00:53:23.164Z,0.60
2023-05-18T00:54:23.220Z,0.60
2023-05-18T00:55:23.235Z,0.61
2023-05-18T00:56:23.242Z,0.61
2023-05-18T00:57:23.263Z,0.60
2023-05-18T00:58:23.297Z,0.60
2023-05-18T00:59:23.311Z,0.60
2023-05-18T01:00:23.373Z,0.60
2023-05-18T01:01:23.414Z,0.59
2023-05-18T01:02:23.432Z,0.60
2023-05-18T01:03:23.442Z,0.59
2023-05-18T01:04:23.501Z,0.60
2023-05-18T01:05:23.517Z,0.60
2023-05-18T01:06:23.506Z,0.60
2023-05-18T01:07:23.534Z,0.61
2023-05-18T01:08:23.565Z,0.59
2023-05-18T01:09:23.619Z,0.59
2023-05-18T01:10:23.660Z,0.60
2023-05-18T01:11:23.689Z,0.60
2023-05-18T01:12:23.662Z,0.60
2023-05-18T01:13:23.697Z,0.59
2023-05-18T01:14:23.725Z,0.60
2023-05-18T01:15:23.780Z,0.60
2023-05-18T01:16:23.817Z,0.59
2023-05-18T01:17:23.842Z,0.60
2023-05-18T01:18:23.840Z,0.59
2023-05-18T01:19:23.895Z,0.60
2023-05-18T01:20:23.923Z,0.61
2023-05-18T01:21:23.891Z,0.60
2023-05-18T01:22:23.926Z,0.60
2023-05-18T01:23:23.998Z,0.59
2023-05-18T01:24:23.987Z,0.61
2023-05-18T01:25:24.019Z,0.61
2023-05-18T01:26:24.055Z,0.60
2023-05-18T01:27:24.066Z,0.59
2023-05-18T01:28:24.114Z,0.59
2023-05-18T01:29:24.141Z,0.60
2023-05-18T01:30:24.191Z,0.59
2023-05-18T01:31:24.218Z,0.60
2023-05-18T01:32:24.268Z,0.59
2023-05-18T01:33:24.248Z,0.59
2023-05-18T01:34:24.320Z,0.60
2023-05-18T01:35:24.321Z,0.59
2023-05-18T01:36:24.333Z,0.60
2023-05-18T01:37:24.387Z,0.60
2023-05-18T01:38:24.503Z,0.60
2023-05-18T01:39:24.407Z,0.59
2023-05-18T01:40:24.440Z,0.60
2023-05-18T01:41:24.458Z,0.60
2023-05-18T01:42:24.490Z,0.60
2023-05-18T01:43:24.524Z,0.61
2023-05-18T01:44:24.526Z,0.61
2023-05-18T01:45:24.560Z,0.60
2023-05-18T01:46:24.679Z,0.60
2023-05-18T01:47:24.663Z,0.61
2023-05-18T01:48:24.668Z,0.60
2023-05-18T01:49:24.661Z,0.60
2023-05-18T01:50:24.718Z,0.60
2023-05-18T01:51:24.732Z,0.60
2023-05-18T01:52:24.789Z,0.62
2023-05-18T01:53:24.751Z,0.60
2023-05-18T01:54:24.807Z,0.60
2023-05-18T01:55:24.828Z,0.59
2023-05-18T01:56:24.873Z,0.60
2023-05-18T01:57:24.883Z,0.60
2023-05-18T01:58:24.925Z,0.61
2023-05-18T01:59:24.940Z,0.61
2023-05-18T02:00:25.012Z,0.60
2023-05-18T02:01:25.017Z,0.60
2023-05-18T02:02:25.177Z,0.61
2023-05-18T02:03:25.122Z,0.61
2023-05-18T02:04:25.113Z,0.60
2023-05-18T02:05:25.161Z,0.61
2023-05-18T02:06:25.145Z,0.61
2023-05-18T02:07:25.198Z,0.61
2023-05-18T02:08:25.211Z,0.60
2023-05-18T02:09:25.267Z,0.60
2023-05-18T02:10:25.292Z,0.60
2023-05-18T02:11:25.336Z,0.62
2023-05-18T02:12:25.401Z,0.61
2023-05-18T02:13:25.406Z,0.60
2023-05-18T02:14:25.451Z,0.61
2023-05-18T02:15:25.454Z,0.60
2023-05-18T02:16:25.546Z,0.61
2023-05-18T02:17:25.532Z,0.62
2023-05-18T02:18:25.545Z,0.60
2023-05-18T02:19:25.799Z,0.61
2023-05-18T02:20:25.914Z,0.62
2023-05-18T02:21:25.645Z,0.62
2023-05-18T02:22:25.716Z,0.61
2023-05-18T02:23:25.714Z,0.60
2023-05-18T02:24:25.802Z,0.59
2023-05-18T02:25:25.790Z,0.60
2023-05-18T02:26:25.851Z,0.60
2023-05-18T02:27:25.855Z,0.61
2023-05-18T02:28:25.904Z,0.60
2023-05-18T02:29:25.914Z,0.60
2023-05-18T02:30:25.920Z,0.61
2023-05-18T02:31:26.052Z,0.59
2023-05-18T02:32:26.172Z,0.61
2023-05-18T02:33:26.050Z,0.61
2023-05-18T02:34:26.096Z,0.61
2023-05-18T02:35:26.104Z,0.60
2023-05-18T02:36:26.164Z,0.60
2023-05-18T02:37:26.165Z,0.62
2023-05-18T02:38:26.341Z,0.60
2023-05-18T02:39:26.240Z,0.61
2023-05-18T02:40:26.297Z,0.59
2023-05-18T02:41:26.291Z,0.63
2023-05-18T02:42:26.358Z,0.61
2023-05-18T02:43:26.351Z,0.61
2023-05-18T02:44:26.425Z,0.61
2023-05-18T02:45:26.429Z,0.60
2023-05-18T02:46:26.521Z,0.60
2023-05-18T02:47:26.536Z,0.61
2023-05-18T02:48:26.492Z,0.62
2023-05-18T02:49:26.568Z,0.60
2023-05-18T02:50:26.614Z,0.60
2023-05-18T02:51:26.640Z,0.61
2023-05-18T02:52:26.698Z,0.62
2023-05-18T02:53:26.703Z,0.61
2023-05-18T02:54:26.750Z,0.61
2023-05-18T02:55:26.759Z,0.60
2023-05-18T02:56:26.817Z,0.62
2023-05-18T02:57:26.820Z,0.60
2023-05-18T02:58:26.880Z,0.62
2023-05-18T02:59:26.972Z,0.61
2023-05-18T03:00:26.951Z,0.61
2023-05-18T03:01:27.180Z,0.61
2023-05-18T03:02:27.049Z,0.60
2023-05-18T03:03:27.065Z,0.61
2023-05-18T03:04:27.070Z,0.60
2023-05-18T03:05:27.175Z,0.62
2023-05-18T03:06:27.338Z,0.61
2023-05-18T03:07:27.210Z,0.61
2023-05-18T03:08:27.325Z,0.63
2023-05-18T03:09:27.269Z,0.62
2023-05-18T03:10:27.338Z,0.62
2023-05-18T03:11:27.335Z,0.62
2023-05-18T03:12:27.379Z,0.62
2023-05-18T03:13:27.455Z,0.62
2023-05-18T03:14:27.445Z,0.61
2023-05-18T03:15:27.633Z,0.61
2023-05-18T03:16:27.544Z,0.62
2023-05-18T03:17:27.634Z,0.62
2023-05-18T03:18:27.600Z,0.61
2023-05-18T03:19:27.646Z,0.63
2023-05-18T03:20:27.648Z,0.62
2023-05-18T03:21:27.716Z,0.61
2023-05-18T03:22:27.771Z,0.62
2023-05-18T03:23:27.773Z,0.60
2023-05-18T03:24:27.779Z,0.61
2023-05-18T03:25:27.893Z,0.61
2023-05-18T03:26:27.858Z,0.62
2023-05-18T03:27:27.891Z,0.61
2023-05-18T03:28:27.957Z,0.62
2023-05-18T03:29:30.575Z,0.61
2023-05-18T03:30:27.981Z,0.63
2023-05-18T03:31:28.028Z,0.62
2023-05-18T03:32:27.959Z,0.61
2023-05-18T03:33:27.965Z,0.61
2023-05-18T03:34:27.952Z,0.63
2023-05-18T03:35:28.009Z,0.62
2023-05-18T03:36:27.894Z,0.61
2023-05-18T03:37:27.915Z,0.62
2023-05-18T03:38:27.915Z,0.63
2023-05-18T03:39:27.892Z,0.62
2023-05-18T03:40:27.863Z,0.62
2023-05-18T03:41:27.900Z,0.62
2023-05-18T03:42:27.909Z,0.63
2023-05-18T03:43:27.853Z,0.63
2023-05-18T03:44:27.892Z,0.62
2023-05-18T03:45:28.009Z,0.62
2023-05-18T03:46:28.366Z,0.60
2023-05-18T03:47:27.870Z,0.62
2023-05-18T03:48:27.929Z,0.61
2023-05-18T03:49:27.854Z,0.60
2023-05-18T03:50:27.861Z,0.62
2023-05-18T03:51:27.826Z,0.63
2023-05-18T03:52:27.812Z,0.63
2023-05-18T03:53:27.819Z,0.61
2023-05-18T03:54:27.785Z,0.61
2023-05-18T03:55:27.967Z,0.62
2023-05-18T03:56:27.798Z,0.61
2023-05-18T03:57:27.808Z,0.63
2023-05-18T03:58:27.752Z,0.62
2023-05-18T03:59:27.758Z,0.62
2023-05-18T04:00:27.790Z,0.63
2023-05-18T04:01:27.723Z,0.61
2023-05-18T04:02:27.870Z,0.62
2023-05-18T04:03:27.803Z,0.61
2023-05-18T04:04:27.832Z,0.61
2023-05-18T04:05:27.810Z,0.59
2023-05-18T04:06:27.723Z,0.57
2023-05-18T04:07:27.703Z,0.56
2023-05-18T04:08:27.696Z,0.55
2023-05-18T04:09:27.671Z,0.54
2023-05-18T04:10:27.689Z,0.54
2023-05-18T04:11:27.676Z,0.53
2023-05-18T04:12:27.700Z,0.52
2023-05-18T04:13:27.717Z,0.51
2023-05-18T04:14:27.655Z,0.51
2023-05-18T04:15:27.667Z,0.50
2023-05-18T04:16:27.680Z,0.50
2023-05-18T04:17:27.676Z,0.50
2023-05-18T04:18:27.676Z,0.51
2023-05-18T04:19:27.928Z,0.53
2023-05-18T04:20:27.725Z,0.51
2023-05-18T04:21:27.785Z,0.50
2023-05-18T04:22:27.808Z,0.50
2023-05-18T04:23:27.901Z,0.50
2023-05-18T04:24:27.872Z,0.51
2023-05-18T04:25:28.391Z,0.52
2023-05-18T04:26:28.000Z,0.50
2023-05-18T04:27:28.009Z,0.50
2023-05-18T04:28:28.051Z,0.50
2023-05-18T04:29:28.131Z,0.52
2023-05-18T04:30:28.125Z,0.50
2023-05-18T04:31:28.230Z,0.52
2023-05-18T04:32:28.310Z,0.52
2023-05-18T04:33:28.246Z,0.52
2023-05-18T04:34:28.303Z,0.51
2023-05-18T04:35:28.512Z,0.52
2023-05-18T04:36:28.384Z,0.52
2023-05-18T04:37:28.431Z,0.53
2023-05-18T04:38:28.486Z,0.52
2023-05-18T04:39:28.488Z,0.53
2023-05-18T04:40:28.551Z,0.54
2023-05-18T04:41:28.614Z,0.53
2023-05-18T04:42:28.613Z,0.53
2023-05-18T04:43:28.693Z,0.53
2023-05-18T04:44:28.738Z,0.54
2023-05-18T04:45:28.898Z,0.53
2023-05-18T04:46:28.892Z,0.55
2023-05-18T04:47:28.921Z,0.54
2023-05-18T04:48:28.899Z,0.53
2023-05-18T04:49:28.966Z,0.55
2023-05-18T04:50:29.027Z,0.54
2023-05-18T04:51:29.033Z,0.55
2023-05-18T04:52:29.034Z,0.55
2023-05-18T04:53:29.109Z,0.55
2023-05-18T04:54:29.157Z,0.56
2023-05-18T04:55:29.686Z,0.56
2023-05-18T04:56:29.230Z,0.56
2023-05-18T04:57:29.285Z,0.56
2023-05-18T04:58:30.486Z,0.56
2023-05-18T04:59:29.313Z,0.56
2023-05-18T05:00:29.409Z,0.57
2023-05-18T05:01:29.450Z,0.58
2023-05-18T05:02:29.509Z,0.57
2023-05-18T05:03:29.789Z,0.57
2023-05-18T05:04:29.530Z,0.58
2023-05-18T05:05:29.679Z,0.57
2023-05-18T05:06:29.645Z,0.57
2023-05-18T05:07:29.653Z,0.60
2023-05-18T05:08:29.675Z,0.58
2023-05-18T05:09:29.770Z,0.59
2023-05-18T05:10:29.768Z,0.59
2023-05-18T05:11:29.806Z,0.59
2023-05-18T05:12:29.802Z,0.58
2023-05-18T05:13:29.849Z,0.60
2023-05-18T05:14:29.893Z,0.60
2023-05-18T05:15:30.095Z,0.60
2023-05-18T05:16:30.149Z,0.60
2023-05-18T05:17:30.025Z,0.61
2023-05-18T05:18:30.160Z,0.60
2023-05-18T05:19:30.218Z,0.59
2023-05-18T05:20:30.162Z,0.60
2023-05-18T05:21:30.207Z,0.62
2023-05-18T05:22:30.254Z,0.61
2023-05-18T05:23:30.262Z,0.60
2023-05-18T05:24:30.332Z,0.61
2023-05-18T05:25:30.623Z,0.60
2023-05-18T05:26:30.377Z,0.61
2023-05-18T05:27:30.402Z,0.62
2023-05-18T05:28:30.469Z,0.59
2023-05-18T05:29:30.505Z,0.61
2023-05-18T05:30:30.525Z,0.62
2023-05-18T05:31:30.655Z,0.62
2023-05-18T05:32:30.660Z,0.62
2023-05-18T05:33:30.647Z,0.62
2023-05-18T05:34:30.716Z,0.63
2023-05-18T05:35:33.336Z,0.63
2023-05-18T05:36:30.726Z,0.63
2023-05-18T05:37:30.686Z,0.63
2023-05-18T05:38:30.679Z,0.63
2023-05-18T05:39:30.674Z,0.63
2023-05-18T05:40:30.802Z,0.62
2023-05-18T05:41:32.418Z,0.63
2023-05-18T05:42:30.672Z,0.63
2023-05-18T05:43:30.674Z,0.64
2023-05-18T05:44:30.667Z,0.62
2023-05-18T05:45:30.844Z,0.63
2023-05-18T05:46:30.641Z,0.64
2023-05-18T05:47:30.670Z,0.64
2023-05-18T05:48:30.599Z,0.65
2023-05-18T05:49:30.617Z,0.63
2023-05-18T05:50:30.749Z,0.63
2023-05-18T05:51:30.626Z,0.65
2023-05-18T05:52:30.640Z,0.64
2023-05-18T05:53:30.585Z,0.65
2023-05-18T05:54:30.578Z,0.64
2023-05-18T05:55:30.919Z,0.65
2023-05-18T05:56:30.556Z,0.64
2023-05-18T05:57:30.609Z,0.64
2023-05-18T05:58:30.533Z,0.65
2023-05-18T05:59:30.615Z,0.65
2023-05-18T06:00:30.667Z,0.63
2023-05-18T06:01:30.747Z,0.65
2023-05-18T06:02:30.864Z,0.65
2023-05-18T06:03:31.890Z,0.65
2023-05-18T06:04:30.781Z,0.65
2023-05-18T06:05:30.965Z,0.66
2023-05-18T06:06:30.761Z,0.66
2023-05-18T06:07:30.764Z,0.66
2023-05-18T06:08:30.841Z,0.65
2023-05-18T06:09:30.845Z,0.67
2023-05-18T06:10:30.853Z,0.65
2023-05-18T06:11:30.914Z,0.68
2023-05-18T06:12:30.912Z,0.66
2023-05-18T06:13:30.972Z,0.67
2023-05-18T06:14:30.984Z,0.65
2023-05-18T06:15:31.223Z,0.66
2023-05-18T06:16:31.069Z,0.66
2023-05-18T06:17:31.069Z,0.67
2023-05-18T06:18:31.056Z,0.67
2023-05-18T06:19:31.123Z,0.68
2023-05-18T06:20:31.140Z,0.67
2023-05-18T06:21:31.134Z,0.66
2023-05-18T06:22:31.141Z,0.66
2023-05-18T06:23:31.156Z,0.69
2023-05-18T06:24:31.205Z,0.69
2023-05-18T06:25:31.284Z,0.66
2023-05-18T06:26:31.280Z,0.67
2023-05-18T06:27:31.284Z,0.66
2023-05-18T06:28:31.254Z,0.68
2023-05-18T06:29:31.345Z,0.67
2023-05-18T06:30:31.297Z,0.67
2023-05-18T06:31:31.341Z,0.68
2023-05-18T06:32:31.437Z,0.67
2023-05-18T06:33:31.370Z,0.67
2023-05-18T06:34:31.378Z,0.68
2023-05-18T06:35:31.576Z,0.68
2023-05-18T06:36:31.414Z,0.67
2023-05-18T06:37:31.459Z,0.68
2023-05-18T06:38:31.392Z,0.68
2023-05-18T06:39:31.472Z,0.67
2023-05-18T06:40:31.441Z,0.68
2023-05-18T06:41:31.475Z,0.69
2023-05-18T06:42:31.449Z,0.69
2023-05-18T06:43:31.502Z,0.69
2023-05-18T06:44:31.504Z,0.70
2023-05-18T06:45:34.417Z,0.68
2023-05-18T06:46:31.643Z,0.68
2023-05-18T06:47:31.522Z,0.68
2023-05-18T06:48:31.453Z,0.68
2023-05-18T06:49:31.469Z,0.69
2023-05-18T06:50:31.434Z,0.71
2023-05-18T06:51:31.501Z,0.70
2023-05-18T06:52:31.461Z,0.71
2023-05-18T06:53:31.472Z,0.70
2023-05-18T06:54:31.408Z,0.70
2023-05-18T06:55:31.653Z,0.71
2023-05-18T06:56:31.414Z,0.69
2023-05-18T06:57:31.375Z,0.71
2023-05-18T06:58:31.400Z,0.71
2023-05-18T06:59:31.402Z,0.71
2023-05-18T07:00:31.402Z,0.71
2023-05-18T07:01:31.480Z,0.70
2023-05-18T07:02:31.366Z,0.71
2023-05-18T07:03:31.376Z,0.71
2023-05-18T07:04:31.382Z,0.71
2023-05-18T07:05:31.541Z,0.70
2023-05-18T07:06:31.370Z,0.71
2023-05-18T07:07:31.375Z,0.72
2023-05-18T07:08:31.362Z,0.70
2023-05-18T07:09:31.363Z,0.71
2023-05-18T07:10:31.339Z,0.71
2023-05-18T07:11:31.309Z,0.71
2023-05-18T07:12:31.314Z,0.71
2023-05-18T07:13:31.303Z,0.72
2023-05-18T07:14:31.309Z,0.71
2023-05-18T07:15:31.669Z,0.71
2023-05-18T07:16:31.362Z,0.72
2023-05-18T07:17:31.467Z,0.72
2023-05-18T07:18:31.261Z,0.73
2023-05-18T07:19:31.309Z,0.72
2023-05-18T07:20:31.348Z,0.72
2023-05-18T07:21:31.390Z,0.73
2023-05-18T07:22:31.447Z,0.71
2023-05-18T07:23:31.504Z,0.72
2023-05-18T07:24:31.564Z,0.72
2023-05-18T07:25:31.887Z,0.73
2023-05-18T07:26:31.691Z,0.72
2023-05-18T07:27:31.802Z,0.72
2023-05-18T07:28:31.837Z,0.73
2023-05-18T07:29:31.911Z,0.73
2023-05-18T07:30:31.967Z,0.73
2023-05-18T07:31:32.039Z,0.73
2023-05-18T07:32:32.121Z,0.73
2023-05-18T07:33:32.149Z,0.72
2023-05-18T07:34:32.228Z,0.73
2023-05-18T07:35:32.651Z,0.73
2023-05-18T07:36:32.353Z,0.72
2023-05-18T07:37:32.410Z,0.72
2023-05-18T07:38:32.409Z,0.72
2023-05-18T07:39:32.544Z,0.72
2023-05-18T07:40:32.566Z,0.73
2023-05-18T07:41:32.628Z,0.74
2023-05-18T07:42:32.664Z,0.72
2023-05-18T07:43:32.725Z,0.70
2023-05-18T07:44:32.796Z,0.72
2023-05-18T07:45:33.062Z,0.72
2023-05-18T07:46:32.978Z,0.71
2023-05-18T07:47:32.995Z,0.72
2023-05-18T07:48:33.069Z,0.72
2023-05-18T07:49:33.112Z,0.73
2023-05-18T07:50:33.149Z,0.73
2023-05-18T07:51:33.179Z,0.73
2023-05-18T07:52:33.318Z,0.74
2023-05-18T07:53:33.348Z,0.72
2023-05-18T07:54:33.411Z,0.72
2023-05-18T07:55:33.701Z,0.72
2023-05-18T07:56:33.547Z,0.73
2023-05-18T07:57:33.582Z,0.72
2023-05-18T07:58:33.658Z,0.72
2023-05-18T07:59:33.712Z,0.73
2023-05-18T08:00:33.758Z,0.73
2023-05-18T08:01:33.814Z,0.72
2023-05-18T08:02:34.154Z,0.72
2023-05-18T08:03:33.966Z,0.73
2023-05-18T08:04:34.076Z,0.72
2023-05-18T08:05:34.160Z,0.73
2023-05-18T08:06:34.112Z,0.73
2023-05-18T08:07:34.154Z,0.73
2023-05-18T08:08:34.229Z,0.73
2023-05-18T08:09:34.317Z,0.74
2023-05-18T08:10:34.344Z,0.73
2023-05-18T08:11:34.379Z,0.73
2023-05-18T08:12:34.500Z,0.74
2023-05-18T08:13:34.580Z,0.73
2023-05-18T08:14:34.562Z,0.73
2023-05-18T08:15:34.654Z,0.74
2023-05-18T08:16:34.747Z,0.73
2023-05-18T08:17:34.748Z,0.74
2023-05-18T08:18:34.878Z,0.73
2023-05-18T08:19:34.849Z,0.73
2023-05-18T08:20:34.867Z,0.73
2023-05-18T08:21:34.968Z,0.74
2023-05-18T08:22:35.000Z,0.73
2023-05-18T08:23:35.079Z,0.73
2023-05-18T08:24:35.152Z,0.73
2023-05-18T08:25:35.160Z,0.74
2023-05-18T08:26:35.294Z,0.74
2023-05-18T08:27:35.273Z,0.73
2023-05-18T08:28:35.316Z,0.74
2023-05-18T08:29:35.393Z,0.73
2023-05-18T08:30:35.432Z,0.74
2023-05-18T08:31:35.465Z,0.73
2023-05-18T08:32:35.623Z,0.73
2023-05-18T08:33:35.623Z,0.73
2023-05-18T08:34:35.632Z,0.73
2023-05-18T08:35:35.715Z,0.73
2023-05-18T08:36:35.698Z,0.72
2023-05-18T08:37:35.794Z,0.72
2023-05-18T08:38:35.866Z,0.73
2023-05-18T08:39:35.863Z,0.73
2023-05-18T08:40:35.916Z,0.72
2023-05-18T08:41:35.983Z,0.74
2023-05-18T08:42:46.035Z,0.72
2023-05-18T08:43:36.973Z,0.73
2023-05-18T08:44:36.006Z,0.73
2023-05-18T08:45:36.029Z,0.73
2023-05-18T08:46:35.980Z,0.73
2023-05-18T08:47:36.046Z,0.73
2023-05-18T08:48:36.033Z,0.73
2023-05-18T08:49:35.989Z,0.73
2023-05-18T08:50:35.938Z,0.73
2023-05-18T08:51:35.963Z,0.73
2023-05-18T08:52:35.956Z,0.73
2023-05-18T08:53:36.010Z,0.72
2023-05-18T08:54:36.024Z,0.73
2023-05-18T08:55:36.103Z,0.73
2023-05-18T08:56:36.149Z,0.72
2023-05-18T08:57:36.217Z,0.72
2023-05-18T08:58:36.287Z,0.72
2023-05-18T08:59:36.245Z,0.74
2023-05-18T09:00:36.426Z,0.73
2023-05-18T09:01:36.375Z,0.73
2023-05-18T09:02:36.397Z,0.71
2023-05-18T09:03:36.440Z,0.72
2023-05-18T09:04:36.522Z,0.72
2023-05-18T09:05:36.598Z,0.73
2023-05-18T09:06:36.585Z,0.71
2023-05-18T09:07:36.600Z,0.72
2023-05-18T09:08:36.608Z,0.72
2023-05-18T09:09:36.647Z,0.73
2023-05-18T09:10:36.713Z,0.73
2023-05-18T09:11:36.755Z,0.72
2023-05-18T09:12:36.756Z,0.72
2023-05-18T09:13:36.814Z,0.73
2023-05-18T09:14:36.882Z,0.74
2023-05-18T09:15:36.903Z,0.73
2023-05-18T09:16:36.964Z,0.72
2023-05-18T09:17:37.080Z,0.72
2023-05-18T09:18:37.107Z,0.72
2023-05-18T09:19:37.064Z,0.73
2023-05-18T09:20:37.065Z,0.73
2023-05-18T09:21:37.094Z,0.72
2023-05-18T09:22:37.121Z,0.71
2023-05-18T09:23:37.147Z,0.72
2023-05-18T09:24:37.216Z,0.73
2023-05-18T09:25:37.214Z,0.72
2023-05-18T09:26:37.285Z,0.71
2023-05-18T09:27:37.450Z,0.72
2023-05-18T09:28:37.356Z,0.72
2023-05-18T09:29:37.373Z,0.73
2023-05-18T09:30:37.399Z,0.72
2023-05-18T09:31:37.484Z,0.72
2023-05-18T09:32:37.535Z,0.72
2023-05-18T09:33:37.668Z,0.73
2023-05-18T09:34:37.534Z,0.72
2023-05-18T09:35:37.779Z,0.73
2023-05-18T09:36:37.610Z,0.73
2023-05-18T09:37:37.674Z,0.73
2023-05-18T09:38:37.621Z,0.73
2023-05-18T09:39:37.685Z,0.71
2023-05-18T09:40:37.676Z,0.72
2023-05-18T09:41:37.747Z,0.73
2023-05-18T09:42:37.755Z,0.72
2023-05-18T09:43:37.810Z,0.72
2023-05-18T09:44:37.867Z,0.72
2023-05-18T09:45:37.873Z,0.73
2023-05-18T09:46:38.024Z,0.73
2023-05-18T09:47:38.005Z,0.73
2023-05-18T09:48:37.922Z,0.73
2023-05-18T09:49:37.944Z,0.73
2023-05-18T09:50:37.943Z,0.71
2023-05-18T09:51:38.013Z,0.71
2023-05-18T09:52:38.016Z,0.73
2023-05-18T09:53:38.027Z,0.72
2023-05-18T09:54:38.094Z,0.72
2023-05-18T09:55:38.260Z,0.71
2023-05-18T09:56:38.096Z,0.72
2023-05-18T09:57:38.163Z,0.71
2023-05-18T09:58:38.206Z,0.72
2023-05-18T09:59:38.248Z,0.72
2023-05-18T10:00:38.238Z,0.71
2023-05-18T10:01:38.228Z,0.72
2023-05-18T10:02:38.321Z,0.72
2023-05-18T10:03:38.260Z,0.70
2023-05-18T10:04:38.361Z,0.72
2023-05-18T10:05:38.616Z,0.71
2023-05-18T10:06:38.365Z,0.71
2023-05-18T10:07:38.367Z,0.72
2023-05-18T10:08:39.358Z,0.71
2023-05-18T10:09:38.390Z,0.71
2023-05-18T10:10:38.463Z,0.70
2023-05-18T10:11:38.474Z,0.71
2023-05-18T10:12:39.492Z,0.71
2023-05-18T10:13:38.500Z,0.71
2023-05-18T10:14:38.505Z,0.71
2023-05-18T10:15:38.521Z,0.72
2023-05-18T10:16:38.559Z,0.71
2023-05-18T10:17:38.873Z,0.72
2023-05-18T10:18:38.704Z,0.71
2023-05-18T10:19:38.621Z,0.72
2023-05-18T10:20:38.628Z,0.68
2023-05-18T10:21:38.621Z,0.70
2023-05-18T10:22:38.684Z,0.72
2023-05-18T10:23:38.694Z,0.71
2023-05-18T10:24:38.687Z,0.72
2023-05-18T10:25:38.775Z,0.71
2023-05-18T10:26:38.712Z,0.71
2023-05-18T10:27:38.783Z,0.72
2023-05-18T10:28:38.784Z,0.71
2023-05-18T10:29:38.799Z,0.72
2023-05-18T10:30:38.839Z,0.71
2023-05-18T10:31:38.811Z,0.71
2023-05-18T10:32:38.907Z,0.71
2023-05-18T10:33:38.989Z,0.71
2023-05-18T10:34:38.930Z,0.71
2023-05-18T10:35:38.894Z,0.70
2023-05-18T10:36:38.945Z,0.72
2023-05-18T10:37:38.941Z,0.71
2023-05-18T10:38:38.924Z,0.70
2023-05-18T10:39:38.914Z,0.69
2023-05-18T10:40:38.925Z,0.71
2023-05-18T10:41:38.972Z,0.72
2023-05-18T10:42:38.999Z,0.72
2023-05-18T10:43:39.047Z,0.71
2023-05-18T10:44:38.984Z,0.70
2023-05-18T10:45:39.014Z,0.72
2023-05-18T10:46:39.069Z,0.71
2023-05-18T10:47:39.371Z,0.70
2023-05-18T10:48:39.128Z,0.71
2023-05-18T10:49:39.033Z,0.69
2023-05-18T10:50:39.043Z,0.71
2023-05-18T10:51:38.976Z,0.71
2023-05-18T10:52:39.061Z,0.69
2023-05-18T10:53:39.084Z,0.70
2023-05-18T10:54:39.123Z,0.69
2023-05-18T10:55:39.068Z,0.71
2023-05-18T10:56:39.076Z,0.70
2023-05-18T10:57:39.085Z,0.71
2023-05-18T10:58:39.087Z,0.70
2023-05-18T10:59:40.090Z,0.72
2023-05-18T11:00:39.108Z,0.72
2023-05-18T11:01:39.181Z,0.71
2023-05-18T11:02:39.148Z,0.70
2023-05-18T11:03:39.139Z,0.70
2023-05-18T11:04:39.200Z,0.70
2023-05-18T11:05:39.137Z,0.70
2023-05-18T11:06:39.145Z,0.71
2023-05-18T11:07:39.154Z,0.69
2023-05-18T11:08:39.166Z,0.67
2023-05-18T11:09:39.168Z,0.71
2023-05-18T11:10:39.182Z,0.69
2023-05-18T11:11:39.188Z,0.67
2023-05-18T11:12:39.133Z,0.69
2023-05-18T11:13:39.208Z,0.69
2023-05-18T11:14:39.131Z,0.67
2023-05-18T11:15:39.208Z,0.69
2023-05-18T11:16:39.236Z,0.67
2023-05-18T11:17:39.214Z,0.68
2023-05-18T11:18:39.557Z,0.69
2023-05-18T11:19:39.232Z,0.70
2023-05-18T11:20:39.245Z,0.68
2023-05-18T11:21:39.182Z,0.71
2023-05-18T11:22:39.197Z,0.71
2023-05-18T11:23:39.312Z,0.69
2023-05-18T11:24:39.200Z,0.68
2023-05-18T11:25:39.210Z,0.68
2023-05-18T11:26:39.205Z,0.69
2023-05-18T11:27:39.232Z,0.68
2023-05-18T11:28:39.230Z,0.68
2023-05-18T11:29:39.205Z,0.67
2023-05-18T11:30:39.194Z,0.69
2023-05-18T11:31:39.327Z,0.70
2023-05-18T11:32:39.314Z,0.68
2023-05-18T11:33:39.271Z,0.70
2023-05-18T11:34:39.842Z,0.66
2023-05-18T11:35:39.278Z,0.70
2023-05-18T11:36:39.590Z,0.70
2023-05-18T11:37:39.339Z,0.69
2023-05-18T11:38:39.260Z,0.68
2023-05-18T11:39:47.865Z,0.71
2023-05-18T11:40:40.303Z,0.71
2023-05-18T11:41:39.330Z,0.71
2023-05-18T11:42:39.286Z,0.71
2023-05-18T11:43:39.231Z,0.71
2023-05-18T11:44:39.245Z,0.69
2023-05-18T11:45:39.255Z,0.67
2023-05-18T11:46:39.262Z,0.70
2023-05-18T11:47:39.358Z,0.71
2023-05-18T11:48:39.331Z,0.69
2023-05-18T11:49:39.229Z,0.68
2023-05-18T11:50:39.176Z,0.68
2023-05-18T11:51:39.196Z,0.68
2023-05-18T11:52:39.176Z,0.71
2023-05-18T11:53:39.202Z,0.69
2023-05-18T11:54:39.168Z,0.68
2023-05-18T11:55:39.170Z,0.68
2023-05-18T11:56:39.180Z,0.69
2023-05-18T11:57:39.193Z,0.68
2023-05-18T11:58:39.160Z,0.71
2023-05-18T11:59:39.121Z,0.69
2023-05-18T12:00:39.103Z,0.68
2023-05-18T12:01:39.145Z,0.69
2023-05-18T12:02:39.177Z,0.68
2023-05-18T12:03:39.201Z,0.66
2023-05-18T12:04:39.266Z,0.69
2023-05-18T12:05:39.134Z,0.68
2023-05-18T12:06:39.156Z,0.72
2023-05-18T12:07:39.179Z,0.67
2023-05-18T12:08:39.200Z,0.69
2023-05-18T12:09:39.256Z,0.67
2023-05-18T12:10:39.262Z,0.69
2023-05-18T12:11:39.348Z,0.69
2023-05-18T12:12:39.337Z,0.68
2023-05-18T12:13:39.396Z,0.70
2023-05-18T12:14:39.431Z,0.70
2023-05-18T12:15:39.512Z,0.71
2023-05-18T12:16:39.630Z,0.72
2023-05-18T12:17:39.655Z,0.70
2023-05-18T12:18:39.657Z,0.67
2023-05-18T12:19:39.676Z,0.68
2023-05-18T12:20:39.745Z,0.66
2023-05-18T12:21:39.751Z,0.70
2023-05-18T12:22:39.859Z,0.66
2023-05-18T12:23:39.905Z,0.67
2023-05-18T12:24:39.991Z,0.67
2023-05-18T12:25:39.986Z,0.68
2023-05-18T12:26:40.035Z,0.68
2023-05-18T12:27:40.157Z,0.70
2023-05-18T12:28:40.262Z,0.71
2023-05-18T12:29:40.346Z,0.68
2023-05-18T12:30:40.340Z,0.68
2023-05-18T12:31:40.639Z,0.67
2023-05-18T12:32:40.519Z,0.70
2023-05-18T12:33:40.546Z,0.67
2023-05-18T12:34:40.619Z,0.68
2023-05-18T12:35:40.595Z,0.69
2023-05-18T12:36:40.668Z,0.70
2023-05-18T12:37:45.020Z,0.69
2023-05-18T12:38:41.706Z,0.69
2023-05-18T12:39:40.706Z,0.69
2023-05-18T12:40:40.708Z,0.70
2023-05-18T12:41:40.709Z,0.70
2023-05-18T12:42:40.721Z,0.71
2023-05-18T12:43:40.670Z,0.70
2023-05-18T12:44:40.678Z,0.72
2023-05-18T12:45:40.683Z,0.66
2023-05-18T12:46:40.760Z,0.69
2023-05-18T12:47:40.817Z,0.69
2023-05-18T12:48:40.853Z,0.70
2023-05-18T12:49:40.907Z,0.70
2023-05-18T12:50:40.992Z,0.69
2023-05-18T12:51:41.079Z,0.68
2023-05-18T12:52:41.086Z,0.67
2023-05-18T12:53:41.204Z,0.67
2023-05-18T12:54:41.204Z,0.71
2023-05-18T12:55:41.323Z,0.68
2023-05-18T12:56:41.326Z,0.67
2023-05-18T12:57:41.393Z,0.67
2023-05-18T12:58:41.501Z,0.68
2023-05-18T12:59:41.509Z,0.72
2023-05-18T13:00:41.675Z,0.69
2023-05-18T13:01:41.724Z,0.68
2023-05-18T13:02:41.827Z,0.69
2023-05-18T13:03:41.801Z,0.67
2023-05-18T13:04:41.792Z,0.67
2023-05-18T13:05:41.913Z,0.70
2023-05-18T13:06:41.941Z,0.67
2023-05-18T13:07:42.030Z,0.70
2023-05-18T13:08:42.067Z,0.70
2023-05-18T13:09:42.129Z,0.67
2023-05-18T13:10:42.182Z,0.69
2023-05-18T13:11:42.299Z,0.69
2023-05-18T13:12:42.357Z,0.66
2023-05-18T13:13:42.407Z,0.68
2023-05-18T13:14:42.470Z,0.67
2023-05-18T13:15:42.523Z,0.69
2023-05-18T13:16:42.681Z,0.67
2023-05-18T13:17:42.681Z,0.67
2023-05-18T13:18:42.740Z,0.68